Time;durP1;ratioP1;P1;durP2;ratioP2;P2;SDS_P1;SDS_P2;PMS_P1;PMS_P2;Temp;Humidity;BMP_temperature;BMP_pressure;BME280_temperature;BME280_humidity;BME280_pressure;Samples;Min_cycle;Max_cycle;Signal;HPM_P1;HPM_P2
2021/01/09 00:00:34;;;;;;;20.23;14.98;;;2.50;98.30;;;;;;5107184;23;20243;-82
2021/01/09 00:02:36;;;;;;;21.10;13.63;;;2.50;98.30;;;;;;5096112;23;20200;-84
2021/01/09 00:04:40;;;;;;;19.27;12.70;;;2.50;98.30;;;;;;5092396;23;20282;-83
2021/01/09 00:06:45;;;;;;;21.33;13.38;;;2.60;98.30;;;;;;5100769;23;21144;-83
2021/01/09 00:08:47;;;;;;;18.00;11.65;;;2.60;98.30;;;;;;5100105;23;20541;-83
2021/01/09 00:10:49;;;;;;;19.98;13.77;;;2.60;98.30;;;;;;5091931;23;20285;-84
2021/01/09 00:12:52;;;;;;;17.67;12.70;;;2.50;98.30;;;;;;5100354;23;20200;-84
2021/01/09 00:14:54;;;;;;;21.80;13.55;;;2.50;98.30;;;;;;5100613;23;20214;-84
2021/01/09 00:16:56;;;;;;;17.67;13.38;;;2.50;98.30;;;;;;5100307;23;20208;-84
2021/01/09 00:18:58;;;;;;;20.25;13.68;;;2.50;98.30;;;;;;5091575;23;20262;-84
2021/01/09 00:21:00;;;;;;;19.75;12.48;;;2.50;98.30;;;;;;5092151;23;20208;-83
2021/01/09 00:23:03;;;;;;;14.85;9.98;;;2.50;98.30;;;;;;5091898;23;20519;-83
2021/01/09 00:25:07;;;;;;;16.10;12.82;;;2.50;98.30;;;;;;5100122;23;20200;-83
2021/01/09 00:27:10;;;;;;;18.45;11.65;;;2.50;98.30;;;;;;5091652;23;20262;-83
2021/01/09 00:29:12;;;;;;;15.90;10.27;;;2.60;98.30;;;;;;5090997;23;20211;-83
2021/01/09 00:31:15;;;;;;;18.98;11.75;;;2.60;98.30;;;;;;5099826;23;20215;-83
2021/01/09 00:33:17;;;;;;;17.73;11.70;;;2.60;98.30;;;;;;5099567;23;20215;-84
2021/01/09 00:35:23;;;;;;;17.80;11.50;;;2.60;98.30;;;;;;5091705;23;20212;-82
2021/01/09 00:37:25;;;;;;;17.80;12.00;;;2.60;98.30;;;;;;5092043;23;20734;-83
2021/01/09 00:39:28;;;;;;;16.35;11.73;;;2.60;98.30;;;;;;5099440;23;20208;-83
2021/01/09 00:41:31;;;;;;;17.80;12.27;;;2.60;98.30;;;;;;5099842;23;20199;-83
2021/01/09 00:43:33;;;;;;;16.80;11.45;;;2.60;98.30;;;;;;5099122;23;20214;-83
2021/01/09 00:45:36;;;;;;;13.77;10.55;;;2.60;98.30;;;;;;5091502;23;20567;-84
2021/01/09 00:47:38;;;;;;;17.30;11.43;;;2.60;98.30;;;;;;5091182;23;20211;-82
2021/01/09 00:49:40;;;;;;;15.82;10.68;;;2.60;98.30;;;;;;5092094;23;20592;-83
2021/01/09 00:51:45;;;;;;;17.00;11.93;;;2.60;98.30;;;;;;5091515;23;20839;-84
2021/01/09 00:53:47;;;;;;;15.80;11.32;;;2.60;98.30;;;;;;5091010;23;20263;-83
2021/01/09 00:55:50;;;;;;;17.08;11.43;;;2.60;98.30;;;;;;5098387;23;20286;-83
2021/01/09 00:57:52;;;;;;;15.85;11.23;;;2.60;98.30;;;;;;5090114;23;20239;-83
2021/01/09 00:59:54;;;;;;;16.85;10.65;;;2.50;98.30;;;;;;5098767;23;20206;-84
2021/01/09 01:01:57;;;;;;;15.55;10.13;;;2.50;98.30;;;;;;5098635;23;20839;-84
2021/01/09 01:03:59;;;;;;;17.27;10.32;;;2.50;98.30;;;;;;5098846;23;20218;-83
2021/01/09 01:06:01;;;;;;;13.70;10.13;;;2.50;98.30;;;;;;5098560;23;20206;-84
2021/01/09 01:08:04;;;;;;;14.23;10.27;;;2.40;98.30;;;;;;5089827;23;20218;-83
2021/01/09 01:10:07;;;;;;;35.03;21.00;;;2.40;98.30;;;;;;5098096;23;20214;-83
2021/01/09 01:12:10;;;;;;;33.05;20.27;;;2.50;98.30;;;;;;5098493;23;20863;-83
2021/01/09 01:14:12;;;;;;;30.40;19.40;;;2.60;98.30;;;;;;5098545;23;20204;-83
2021/01/09 01:16:14;;;;;;;16.95;11.30;;;2.80;98.30;;;;;;5097130;23;20240;-83
2021/01/09 01:18:20;;;;;;;14.90;10.48;;;2.70;98.30;;;;;;5098867;23;20678;-84
2021/01/09 01:20:22;;;;;;;16.50;11.25;;;2.60;98.30;;;;;;5089949;23;20207;-83
2021/01/09 01:22:25;;;;;;;16.23;11.55;;;2.60;98.30;;;;;;5090321;23;20282;-83
2021/01/09 01:24:27;;;;;;;17.60;11.82;;;2.60;98.30;;;;;;5090091;23;20238;-83
2021/01/09 01:26:28;;;;;;;19.80;14.35;;;2.50;98.30;;;;;;5089416;23;20249;-82
2021/01/09 01:28:31;;;;;;;18.27;12.73;;;2.60;98.30;;;;;;5089583;23;20204;-83
2021/01/09 01:30:33;;;;;;;18.50;11.95;;;2.60;98.30;;;;;;5089666;23;20286;-81
2021/01/09 01:32:35;;;;;;;17.42;11.95;;;2.60;98.30;;;;;;5089355;23;20207;-82
2021/01/09 01:34:37;;;;;;;19.00;13.20;;;2.50;98.30;;;;;;5090139;23;20302;-83
2021/01/09 01:36:39;;;;;;;17.00;12.02;;;2.50;98.30;;;;;;5089093;23;20211;-83
2021/01/09 01:38:42;;;;;;;19.27;12.68;;;2.50;98.30;;;;;;5090008;23;20235;-83
2021/01/09 01:40:44;;;;;;;19.65;13.18;;;2.50;98.30;;;;;;5088985;23;20218;-81
2021/01/09 01:42:45;;;;;;;19.88;13.05;;;2.50;98.30;;;;;;5089239;23;20203;-84
2021/01/09 01:44:48;;;;;;;20.38;12.73;;;2.50;98.30;;;;;;5097521;23;20670;-83
2021/01/09 01:46:52;;;;;;;17.58;11.93;;;2.50;98.30;;;;;;5091566;23;20215;-80
2021/01/09 01:48:54;;;;;;;18.77;12.35;;;2.50;98.30;;;;;;5107933;23;20417;-80
2021/01/09 01:50:57;;;;;;;20.10;13.40;;;2.50;98.30;;;;;;5107822;23;20691;-80
2021/01/09 01:53:00;;;;;;;17.52;12.85;;;2.50;98.30;;;;;;5108452;23;20601;-80
2021/01/09 01:55:03;;;;;;;18.75;13.23;;;2.60;98.30;;;;;;5108354;23;20207;-80
2021/01/09 01:57:07;;;;;;;16.75;11.25;;;2.50;98.30;;;;;;5096512;23;20204;-80
2021/01/09 01:59:09;;;;;;;20.75;13.02;;;2.50;98.30;;;;;;5075098;23;20234;-80
2021/01/09 02:01:15;;;;;;;17.23;12.98;;;2.50;98.30;;;;;;5076022;23;20247;-80
2021/01/09 02:03:19;;;;;;;24.80;14.98;;;2.40;98.30;;;;;;5075373;23;20204;-80
2021/01/09 02:05:23;;;;;;;17.08;12.30;;;2.40;98.30;;;;;;5082768;23;20252;-80
2021/01/09 02:07:29;;;;;;;17.88;12.75;;;2.40;98.30;;;;;;5083039;23;20208;-80
2021/01/09 02:09:38;;;;;;;15.85;12.52;;;2.50;98.30;;;;;;5082743;23;20204;-80
2021/01/09 02:11:50;;;;;;;18.08;12.45;;;2.50;98.30;;;;;;5074711;23;20219;-80
2021/01/09 02:13:57;;;;;;;18.88;13.60;;;2.50;98.30;;;;;;5082769;23;20230;-80
2021/01/09 02:16:00;;;;;;;20.27;12.57;;;2.40;98.30;;;;;;5082683;23;20208;-80
2021/01/09 02:18:04;;;;;;;17.92;12.30;;;2.50;98.30;;;;;;5080964;23;20227;-80
2021/01/09 02:20:08;;;;;;;20.50;12.95;;;2.50;98.30;;;;;;5075345;23;20516;-81
2021/01/09 02:22:12;;;;;;;18.77;11.80;;;2.50;98.30;;;;;;5081050;23;20503;-81
2021/01/09 02:24:17;;;;;;;18.80;12.73;;;2.60;98.30;;;;;;5073350;23;20283;-81
2021/01/09 02:26:19;;;;;;;19.92;12.43;;;2.50;98.30;;;;;;5081503;23;20534;-81
2021/01/09 02:28:22;;;;;;;18.50;12.02;;;2.50;98.30;;;;;;5072586;23;20236;-81
2021/01/09 02:30:29;;;;;;;17.25;11.77;;;2.50;98.30;;;;;;5072979;23;20591;-82
2021/01/09 02:32:41;;;;;;;17.25;11.90;;;2.40;98.30;;;;;;5082055;23;20210;-81
2021/01/09 02:34:47;;;;;;;16.33;11.40;;;2.50;98.30;;;;;;5081553;23;20231;-81
2021/01/09 02:36:49;;;;;;;17.90;12.40;;;2.50;98.30;;;;;;5080615;23;20204;-81
2021/01/09 02:38:52;;;;;;;17.63;13.32;;;2.50;98.30;;;;;;5080007;23;20272;-81
2021/01/09 02:40:54;;;;;;;17.67;12.32;;;2.50;98.30;;;;;;5080786;23;20243;-81
2021/01/09 02:42:56;;;;;;;19.75;12.75;;;2.50;98.30;;;;;;5072503;23;20204;-81
2021/01/09 02:44:59;;;;;;;21.73;14.35;;;2.50;98.30;;;;;;5081509;23;20787;-81
2021/01/09 02:47:01;;;;;;;19.05;13.57;;;2.40;98.30;;;;;;5080858;23;20295;-80
2021/01/09 02:49:03;;;;;;;18.50;12.10;;;2.40;98.30;;;;;;5079215;23;20266;-81
2021/01/09 02:51:05;;;;;;;17.30;11.95;;;2.40;98.30;;;;;;5080893;23;20689;-81
2021/01/09 02:53:07;;;;;;;19.33;12.40;;;2.50;98.30;;;;;;5073065;23;20243;-81
2021/01/09 02:55:10;;;;;;;19.45;13.00;;;2.50;98.30;;;;;;5082305;23;20212;-81
2021/01/09 02:57:13;;;;;;;23.42;14.43;;;2.40;98.30;;;;;;5073534;23;20287;-81
2021/01/09 02:59:15;;;;;;;19.00;14.10;;;2.50;98.30;;;;;;5083440;23;20287;-81
2021/01/09 03:01:17;;;;;;;20.45;12.60;;;2.60;98.30;;;;;;5075713;23;20205;-81
2021/01/09 03:03:19;;;;;;;19.50;12.80;;;2.60;98.30;;;;;;5075248;23;20210;-81
2021/01/09 03:05:21;;;;;;;20.02;13.25;;;2.60;98.30;;;;;;5082257;23;20212;-81
2021/01/09 03:07:23;;;;;;;18.98;12.73;;;2.50;98.30;;;;;;5080749;23;20228;-81
2021/01/09 03:09:26;;;;;;;19.00;13.57;;;2.50;98.30;;;;;;5078613;23;20232;-81
2021/01/09 03:11:28;;;;;;;18.70;12.98;;;2.50;98.30;;;;;;5078432;23;20204;-81
2021/01/09 03:13:31;;;;;;;19.02;13.60;;;2.50;98.30;;;;;;5070090;23;20295;-81
2021/01/09 03:15:33;;;;;;;21.25;15.77;;;2.40;98.30;;;;;;5070389;23;20302;-81
2021/01/09 03:17:35;;;;;;;19.25;13.23;;;2.50;98.30;;;;;;5070404;23;20536;-81
2021/01/09 03:19:37;;;;;;;18.25;13.20;;;2.50;98.30;;;;;;5069931;23;20219;-81
2021/01/09 03:21:39;;;;;;;18.63;12.43;;;2.50;98.30;;;;;;5077967;23;20383;-81
2021/01/09 03:23:42;;;;;;;21.77;13.48;;;2.50;98.30;;;;;;5077930;23;20582;-81
2021/01/09 03:25:44;;;;;;;20.30;13.40;;;2.50;98.30;;;;;;5080604;23;20208;-81
2021/01/09 03:27:46;;;;;;;17.23;11.07;;;2.50;98.30;;;;;;5081492;23;20204;-81
2021/01/09 03:29:48;;;;;;;19.88;13.05;;;2.50;98.30;;;;;;5081044;23;20207;-80
2021/01/09 03:31:50;;;;;;;18.25;12.20;;;2.50;98.30;;;;;;5079322;23;20211;-81
2021/01/09 03:33:52;;;;;;;17.83;12.10;;;2.50;98.30;;;;;;5067853;23;20204;-81
2021/01/09 03:35:54;;;;;;;17.90;10.95;;;2.50;98.30;;;;;;5071862;23;20223;-81
2021/01/09 03:37:56;;;;;;;16.38;12.25;;;2.50;98.30;;;;;;5083381;23;20524;-81
2021/01/09 03:39:58;;;;;;;17.52;11.73;;;2.50;98.30;;;;;;5085326;23;20211;-81
2021/01/09 03:42:00;;;;;;;16.05;11.90;;;2.50;98.30;;;;;;5084844;23;20208;-80
2021/01/09 03:44:03;;;;;;;17.45;12.77;;;2.50;98.30;;;;;;5077450;23;20208;-80
2021/01/09 03:46:06;;;;;;;18.75;11.38;;;2.50;98.30;;;;;;5077959;23;20208;-80
2021/01/09 03:48:08;;;;;;;16.38;10.45;;;2.50;98.30;;;;;;5075200;23;20216;-80
2021/01/09 03:50:10;;;;;;;18.40;12.40;;;2.50;98.30;;;;;;5075684;23;20215;-80
2021/01/09 03:52:12;;;;;;;17.38;11.43;;;2.50;98.30;;;;;;5073671;23;20227;-80
2021/01/09 03:54:14;;;;;;;15.57;10.73;;;2.60;98.30;;;;;;5082754;23;20659;-81
2021/01/09 03:56:16;;;;;;;20.08;11.95;;;2.60;98.30;;;;;;5083386;23;20259;-80
2021/01/09 03:58:18;;;;;;;15.77;10.60;;;2.60;98.30;;;;;;5075461;23;20243;-81
2021/01/09 04:00:21;;;;;;;16.80;10.32;;;2.60;98.30;;;;;;5083326;23;20239;-81
2021/01/09 04:02:23;;;;;;;17.00;11.32;;;2.60;98.30;;;;;;5083798;23;20287;-80
2021/01/09 04:04:25;;;;;;;17.00;10.70;;;2.60;98.30;;;;;;5085878;23;20240;-81
2021/01/09 04:06:27;;;;;;;17.70;12.75;;;2.50;98.30;;;;;;5085628;23;20212;-81
2021/01/09 04:08:29;;;;;;;16.02;10.07;;;2.50;98.30;;;;;;5084590;23;20272;-80
2021/01/09 04:10:31;;;;;;;17.98;12.63;;;2.50;98.30;;;;;;5084155;23;20212;-80
2021/01/09 04:12:34;;;;;;;16.08;11.73;;;2.60;98.30;;;;;;5083392;23;20208;-82
2021/01/09 04:14:36;;;;;;;18.73;12.75;;;2.60;98.30;;;;;;5073664;23;20242;-81
2021/01/09 04:16:39;;;;;;;19.10;10.93;;;2.60;98.30;;;;;;5082928;23;20208;-81
2021/01/09 04:18:42;;;;;;;15.40;11.43;;;2.60;98.30;;;;;;5083253;23;20200;-80
2021/01/09 04:20:44;;;;;;;18.48;9.65;;;2.60;98.30;;;;;;5083684;23;20231;-81
2021/01/09 04:22:46;;;;;;;15.52;11.07;;;2.60;98.30;;;;;;5079426;23;20200;-81
2021/01/09 04:24:49;;;;;;;17.00;10.40;;;2.70;98.30;;;;;;5077732;23;20591;-81
2021/01/09 04:26:55;;;;;;;16.17;11.85;;;2.60;98.30;;;;;;5078915;23;20240;-81
2021/01/09 04:28:57;;;;;;;17.20;12.55;;;2.60;98.30;;;;;;5078657;23;20204;-81
2021/01/09 04:31:00;;;;;;;16.40;11.07;;;2.60;98.30;;;;;;5079257;23;20208;-81
2021/01/09 04:33:02;;;;;;;15.70;9.45;;;2.60;98.30;;;;;;5079230;23;20289;-81
2021/01/09 04:35:06;;;;;;;16.65;12.15;;;2.50;98.30;;;;;;5078825;23;20239;-81
2021/01/09 04:37:08;;;;;;;15.77;12.05;;;2.50;98.30;;;;;;5070732;23;20218;-81
2021/01/09 04:39:12;;;;;;;16.23;12.05;;;2.60;98.30;;;;;;5077835;23;20208;-81
2021/01/09 04:41:19;;;;;;;17.40;11.82;;;2.60;98.30;;;;;;5078306;23;20208;-81
2021/01/09 04:43:22;;;;;;;16.70;10.77;;;2.60;98.30;;;;;;5079340;23;20266;-81
2021/01/09 04:45:24;;;;;;;17.60;11.70;;;2.60;98.30;;;;;;5079593;23;20259;-81
2021/01/09 04:47:27;;;;;;;17.48;12.43;;;2.60;98.30;;;;;;5079308;23;20293;-81
2021/01/09 04:49:30;;;;;;;16.17;10.60;;;2.60;98.30;;;;;;5080947;23;20790;-81
2021/01/09 04:51:38;;;;;;;18.58;12.85;;;2.60;98.30;;;;;;5081697;23;20204;-82
2021/01/09 04:53:40;;;;;;;17.40;12.95;;;2.60;98.30;;;;;;5081065;23;20250;-81
2021/01/09 04:55:43;;;;;;;17.08;11.80;;;2.60;98.30;;;;;;5080630;23;20208;-81
2021/01/09 04:57:45;;;;;;;19.48;13.23;;;2.70;98.30;;;;;;5081580;23;20208;-81
2021/01/09 04:59:47;;;;;;;18.40;13.10;;;2.60;98.30;;;;;;5081021;23;20567;-81
2021/01/09 05:01:50;;;;;;;18.17;12.50;;;2.70;98.30;;;;;;5081374;23;20739;-81
2021/01/09 05:03:54;;;;;;;18.80;13.25;;;2.60;98.30;;;;;;5083793;23;20204;-82
2021/01/09 05:05:56;;;;;;;18.85;12.95;;;2.60;98.30;;;;;;5084594;23;20224;-81
2021/01/09 05:08:00;;;;;;;19.80;13.57;;;2.60;98.30;;;;;;5084303;23;20200;-81
2021/01/09 05:10:04;;;;;;;18.63;12.65;;;2.60;98.30;;;;;;5083920;23;20204;-82
2021/01/09 05:12:08;;;;;;;16.88;12.88;;;2.60;98.30;;;;;;5083694;23;20208;-81
2021/01/09 05:14:10;;;;;;;17.77;12.23;;;2.60;98.30;;;;;;5086865;23;20260;-82
2021/01/09 05:16:14;;;;;;;18.35;13.43;;;2.50;98.30;;;;;;5088785;23;20214;-82
2021/01/09 05:18:18;;;;;;;18.80;13.63;;;2.50;98.30;;;;;;5089594;23;20204;-81
2021/01/09 05:20:19;;;;;;;21.95;14.40;;;2.40;98.30;;;;;;5090288;23;20208;-81
2021/01/09 05:22:22;;;;;;;15.50;10.93;;;2.50;98.30;;;;;;5085562;23;20215;-81
2021/01/09 05:24:25;;;;;;;18.98;13.13;;;2.50;98.30;;;;;;5084442;23;20210;-81
2021/01/09 05:26:28;;;;;;;17.98;12.27;;;2.40;98.30;;;;;;5075430;23;20212;-80
2021/01/09 05:28:30;;;;;;;19.42;12.63;;;2.40;98.30;;;;;;5076326;23;20208;-81
2021/01/09 05:30:32;;;;;;;20.23;14.00;;;2.50;98.30;;;;;;5085830;23;20211;-81
2021/01/09 05:32:34;;;;;;;18.10;12.40;;;2.40;98.30;;;;;;5085649;23;20228;-80
2021/01/09 05:34:45;;;;;;;19.67;13.68;;;2.40;98.30;;;;;;5075996;23;20208;-81
2021/01/09 05:36:47;;;;;;;18.23;12.73;;;2.40;98.30;;;;;;5087524;23;20215;-80
2021/01/09 05:38:51;;;;;;;19.98;13.63;;;2.40;98.30;;;;;;5089145;23;20264;-81
2021/01/09 05:41:03;;;;;;;17.77;13.18;;;2.40;98.30;;;;;;5081437;23;20641;-81
2021/01/09 05:43:08;;;;;;;19.52;13.32;;;2.50;98.30;;;;;;5089295;23;20206;-81
2021/01/09 05:45:12;;;;;;;19.25;13.30;;;2.50;98.30;;;;;;5088196;23;20208;-81
2021/01/09 05:47:15;;;;;;;19.83;13.10;;;2.40;98.30;;;;;;5086286;23;20220;-80
2021/01/09 05:49:28;;;;;;;18.73;13.23;;;2.50;98.30;;;;;;5080942;23;20207;-81
2021/01/09 05:51:31;;;;;;;18.80;13.82;;;2.40;98.30;;;;;;5071252;23;20216;-81
2021/01/09 05:53:37;;;;;;;21.90;14.85;;;2.40;98.30;;;;;;5078325;23;20204;-81
2021/01/09 05:55:41;;;;;;;18.00;12.50;;;2.40;98.30;;;;;;5071772;23;20211;-81
2021/01/09 05:57:45;;;;;;;20.48;14.38;;;2.40;98.30;;;;;;5071887;23;20260;-81
2021/01/09 05:59:47;;;;;;;19.20;13.07;;;2.40;98.30;;;;;;5080680;23;20204;-80
2021/01/09 06:01:55;;;;;;;20.33;14.00;;;2.40;98.30;;;;;;5081204;23;20235;-80
2021/01/09 06:03:59;;;;;;;18.05;12.90;;;2.30;98.30;;;;;;5080547;23;20195;-81
2021/01/09 06:06:03;;;;;;;19.38;13.50;;;2.30;98.30;;;;;;5080263;23;20204;-81
2021/01/09 06:08:07;;;;;;;19.33;12.90;;;2.40;98.30;;;;;;5075082;23;20547;-81
2021/01/09 06:10:12;;;;;;;20.85;13.60;;;2.40;98.30;;;;;;5083644;23;20200;-80
2021/01/09 06:12:14;;;;;;;19.73;14.30;;;2.30;98.30;;;;;;5074672;23;20220;-80
2021/01/09 06:14:18;;;;;;;19.83;12.98;;;2.30;98.30;;;;;;5073465;23;20221;-81
2021/01/09 06:16:27;;;;;;;20.20;12.63;;;2.30;98.30;;;;;;5081920;23;20629;-81
2021/01/09 06:18:31;;;;;;;19.85;14.32;;;2.30;98.30;;;;;;5073969;23;20212;-81
2021/01/09 06:20:33;;;;;;;19.98;13.68;;;2.40;98.30;;;;;;5082033;23;20204;-81
2021/01/09 06:22:38;;;;;;;21.33;13.73;;;2.30;98.30;;;;;;5081621;23;20531;-81
2021/01/09 06:24:41;;;;;;;20.02;13.63;;;2.40;98.30;;;;;;5073175;23;20243;-81
2021/01/09 06:26:45;;;;;;;20.60;13.00;;;2.30;98.30;;;;;;5080927;23;20296;-81
2021/01/09 06:28:51;;;;;;;18.80;13.05;;;2.30;98.30;;;;;;5073423;23;20212;-81
2021/01/09 06:30:55;;;;;;;17.60;13.25;;;2.30;98.30;;;;;;5081169;23;20255;-81
2021/01/09 06:33:01;;;;;;;19.50;13.23;;;2.30;98.30;;;;;;5074164;23;20211;-81
2021/01/09 06:35:04;;;;;;;19.23;12.55;;;2.30;98.30;;;;;;5075744;23;20264;-81
2021/01/09 06:37:07;;;;;;;21.80;12.80;;;2.30;98.30;;;;;;5082994;23;20216;-81
2021/01/09 06:39:09;;;;;;;20.83;14.63;;;2.30;98.30;;;;;;5081204;23;20580;-82
2021/01/09 06:41:14;;;;;;;18.92;13.50;;;2.20;98.30;;;;;;5079296;23;20287;-82
2021/01/09 06:43:18;;;;;;;16.95;10.95;;;2.20;98.30;;;;;;5077891;23;20200;-82
2021/01/09 06:45:21;;;;;;;18.42;13.10;;;2.20;98.30;;;;;;5077746;23;20762;-81
2021/01/09 06:47:26;;;;;;;17.67;12.30;;;2.20;98.30;;;;;;5091377;23;20329;-81
2021/01/09 06:49:28;;;;;;;17.80;13.50;;;2.20;98.30;;;;;;5085159;23;20208;-82
2021/01/09 06:51:40;;;;;;;18.15;13.00;;;2.20;98.30;;;;;;5094012;23;20220;-81
2021/01/09 06:54:02;;;;;;;17.08;12.15;;;2.20;98.30;;;;;;5088928;23;20215;-82
2021/01/09 06:56:08;;;;;;;22.75;13.07;;;2.20;98.30;;;;;;5094156;23;20481;-81
2021/01/09 06:58:15;;;;;;;22.40;13.43;;;2.20;98.30;;;;;;5085901;23;20239;-82
2021/01/09 07:00:18;;;;;;;20.40;13.25;;;2.20;98.30;;;;;;5087825;23;20234;-82
2021/01/09 07:02:22;;;;;;;21.10;13.23;;;2.30;98.30;;;;;;5077195;23;20279;-82
2021/01/09 07:04:59;;;;;;;19.40;13.10;;;2.20;98.30;;;;;;5078705;23;20226;-82
2021/01/09 07:07:01;;;;;;;19.23;12.25;;;2.20;98.30;;;;;;5082826;23;20211;-83
2021/01/09 07:09:05;;;;;;;19.58;12.43;;;2.30;98.30;;;;;;5083197;23;20204;-82
2021/01/09 07:11:07;;;;;;;19.75;13.60;;;2.20;98.30;;;;;;5074876;23;20227;-82
2021/01/09 07:13:11;;;;;;;20.05;13.98;;;2.30;98.30;;;;;;5086830;23;20242;-81
2021/01/09 07:15:15;;;;;;;19.27;14.13;;;2.20;98.30;;;;;;5086745;23;20211;-82
2021/01/09 07:17:18;;;;;;;20.33;13.38;;;2.20;98.30;;;;;;5077581;23;20232;-81
2021/01/09 07:19:26;;;;;;;19.20;12.80;;;2.20;98.30;;;;;;5086004;23;20214;-82
2021/01/09 07:21:29;;;;;;;21.80;13.55;;;2.20;98.30;;;;;;5079498;23;20746;-81
2021/01/09 07:23:33;;;;;;;20.30;13.05;;;2.10;98.30;;;;;;5078261;23;20212;-81
2021/01/09 07:25:36;;;;;;;20.48;13.77;;;2.10;98.30;;;;;;5078654;23;20212;-82
2021/01/09 07:27:41;;;;;;;18.50;13.30;;;2.10;98.30;;;;;;5085405;23;20251;-81
2021/01/09 07:29:43;;;;;;;18.20;13.20;;;2.10;98.30;;;;;;5087680;23;20211;-81
2021/01/09 07:31:48;;;;;;;21.80;12.77;;;2.20;98.30;;;;;;5085799;23;20268;-82
2021/01/09 07:33:56;;;;;;;21.42;13.20;;;2.20;98.30;;;;;;5085753;23;20295;-81
2021/01/09 07:35:59;;;;;;;18.52;12.43;;;2.10;98.30;;;;;;5078109;23;20208;-81
2021/01/09 07:38:04;;;;;;;20.13;12.63;;;2.10;98.30;;;;;;5084740;23;20204;-82
2021/01/09 07:40:17;;;;;;;21.45;14.80;;;2.10;98.30;;;;;;5085056;23;20263;-82
2021/01/09 07:42:25;;;;;;;20.45;12.80;;;2.10;98.30;;;;;;5083912;23;20210;-81
2021/01/09 07:44:30;;;;;;;21.05;12.68;;;2.10;98.30;;;;;;5074750;23;20677;-81
2021/01/09 07:46:32;;;;;;;17.98;12.23;;;2.20;98.30;;;;;;5082720;23;20258;-81
2021/01/09 07:48:35;;;;;;;17.13;11.70;;;2.20;98.30;;;;;;5083153;23;20211;-81
2021/01/09 07:50:43;;;;;;;19.27;13.07;;;2.10;98.30;;;;;;5083107;23;20204;-81
2021/01/09 07:55:23;;;;;;;19.33;12.27;;;2.10;98.30;;;;;;5097025;23;20213;-84
2021/01/09 07:57:53;;;;;;;20.95;13.30;;;2.20;98.30;;;;;;5101331;23;20211;-84
2021/01/09 08:03:28;;;;;;;19.40;13.00;;;2.30;98.30;;;;;;5098739;23;20277;-84
2021/01/09 08:06:14;;;;;;;23.45;14.18;;;2.20;98.30;;;;;;5094225;23;20245;-84
2021/01/09 08:08:38;;;;;;;22.60;13.23;;;2.30;98.30;;;;;;5100888;23;20219;-83
2021/01/09 08:14:36;;;;;;;23.30;15.75;;;2.20;98.30;;;;;;5109405;23;20705;-84
2021/01/09 08:16:50;;;;;;;33.70;21.45;;;2.20;98.30;;;;;;5107268;23;20211;-84
2021/01/09 08:19:23;;;;;;;30.27;19.50;;;2.20;98.30;;;;;;5107590;23;20203;-83
2021/01/09 08:21:26;;;;;;;23.88;14.85;;;2.20;98.30;;;;;;5109311;23;20204;-84
2021/01/09 08:23:30;;;;;;;21.33;13.95;;;2.30;98.30;;;;;;5108482;23;20199;-84
2021/01/09 08:29:06;;;;;;;30.80;20.58;;;2.30;98.30;;;;;;5021692;23;20287;-83
2021/01/09 08:31:09;;;;;;;56.78;31.58;;;2.30;98.30;;;;;;5107850;23;20207;-83
2021/01/09 08:33:13;;;;;;;78.40;44.40;;;2.30;98.30;;;;;;5107208;23;20268;-83
2021/01/09 08:35:16;;;;;;;35.63;22.15;;;2.40;98.30;;;;;;5109131;23;20200;-83
2021/01/09 08:37:19;;;;;;;22.40;15.40;;;2.40;98.30;;;;;;5105761;23;20209;-83
2021/01/09 08:39:21;;;;;;;20.92;13.35;;;2.40;98.30;;;;;;5104397;23;20722;-83
2021/01/09 08:41:23;;;;;;;19.23;12.68;;;2.40;98.30;;;;;;5097092;23;20242;-83
2021/01/09 08:43:25;;;;;;;21.98;13.32;;;2.40;98.30;;;;;;5097972;23;20606;-83
2021/01/09 08:45:43;;;;;;;18.42;12.80;;;2.30;98.30;;;;;;5098766;23;20691;-83
2021/01/09 08:47:47;;;;;;;24.02;14.88;;;2.40;98.30;;;;;;5106796;23;20658;-84
2021/01/09 08:49:52;;;;;;;18.70;12.90;;;2.40;98.30;;;;;;5107428;23;20290;-84
2021/01/09 08:52:00;;;;;;;23.48;15.98;;;2.40;98.30;;;;;;5108366;23;20210;-84
2021/01/09 08:54:49;;;;;;;33.20;19.85;;;2.50;98.30;;;;;;5105344;23;20213;-84
2021/01/09 08:57:21;;;;;;;52.78;31.00;;;2.70;98.30;;;;;;5106772;23;20213;-84
2021/01/09 08:59:46;;;;;;;25.10;16.75;;;2.80;98.30;;;;;;5109276;23;20273;-83
2021/01/09 09:01:56;;;;;;;18.90;13.60;;;2.80;98.30;;;;;;5108471;23;20203;-83
2021/01/09 09:04:10;;;;;;;50.05;28.80;;;2.70;98.30;;;;;;5110706;23;20205;-83
2021/01/09 09:06:15;;;;;;;58.63;34.17;;;2.70;98.30;;;;;;5111844;23;20203;-84
2021/01/09 09:08:40;;;;;;;89.90;44.15;;;2.60;98.30;;;;;;5111141;23;20199;-83
2021/01/09 09:10:51;;;;;;;43.92;24.42;;;2.70;98.30;;;;;;5111306;23;20212;-83
2021/01/09 09:13:15;;;;;;;29.80;17.73;;;2.80;98.30;;;;;;5111971;23;20206;-83
2021/01/09 09:15:29;;;;;;;33.22;19.55;;;2.80;98.30;;;;;;5107308;23;20218;-82
2021/01/09 09:17:33;;;;;;;25.98;16.40;;;2.80;98.30;;;;;;5106711;23;20206;-83
2021/01/09 09:19:36;;;;;;;28.05;18.58;;;2.90;98.30;;;;;;5106488;23;20242;-83
2021/01/09 09:21:45;;;;;;;26.30;15.15;;;2.90;98.30;;;;;;5107966;23;20203;-82
2021/01/09 09:23:55;;;;;;;46.05;26.13;;;3.00;98.30;;;;;;5106010;23;20222;-83
2021/01/09 09:26:06;;;;;;;60.90;34.28;;;3.00;98.30;;;;;;5106817;23;20206;-83
2021/01/09 09:28:08;;;;;;;55.72;32.63;;;2.80;98.30;;;;;;5104515;23;20291;-82
2021/01/09 09:30:13;;;;;;;23.25;15.27;;;2.80;98.30;;;;;;5102397;23;20257;-82
2021/01/09 09:32:23;;;;;;;20.10;13.70;;;2.70;98.30;;;;;;5093508;23;20212;-82
2021/01/09 09:34:28;;;;;;;22.77;15.10;;;2.70;98.30;;;;;;5101186;23;20211;-82
2021/01/09 09:36:31;;;;;;;28.48;17.95;;;2.70;98.30;;;;;;5101240;23;20206;-81
2021/01/09 09:38:33;;;;;;;26.30;16.33;;;2.70;98.30;;;;;;5102145;23;20199;-82
2021/01/09 09:40:37;;;;;;;25.80;15.80;;;2.70;98.30;;;;;;5101339;23;20207;-82
2021/01/09 09:42:39;;;;;;;20.05;12.80;;;2.70;98.30;;;;;;5102067;23;20207;-82
2021/01/09 09:44:42;;;;;;;20.92;12.32;;;2.70;98.30;;;;;;5102237;23;20278;-82
2021/01/09 09:46:45;;;;;;;22.95;14.95;;;2.60;98.30;;;;;;5095091;23;20211;-82
2021/01/09 09:48:48;;;;;;;21.83;12.63;;;2.60;98.30;;;;;;5104754;23;20203;-82
2021/01/09 09:51:01;;;;;;;20.58;12.82;;;2.60;98.30;;;;;;5103226;23;20207;-82
2021/01/09 09:53:05;;;;;;;23.80;14.40;;;2.50;98.30;;;;;;5101801;23;20199;-82
2021/01/09 09:55:09;;;;;;;20.20;13.07;;;2.50;98.30;;;;;;5103111;23;20204;-82
2021/01/09 09:57:22;;;;;;;20.85;12.82;;;2.40;98.30;;;;;;5103098;23;20203;-82
2021/01/09 09:59:29;;;;;;;22.40;13.55;;;2.40;98.30;;;;;;5094521;23;20314;-82
2021/01/09 10:01:31;;;;;;;23.85;13.85;;;2.40;98.30;;;;;;5101479;23;20218;-82
2021/01/09 10:03:37;;;;;;;24.15;13.85;;;2.50;98.30;;;;;;5102791;23;20195;-82
2021/01/09 10:05:41;;;;;;;24.40;14.65;;;2.50;98.30;;;;;;5102679;23;20203;-82
2021/01/09 10:07:44;;;;;;;23.60;15.20;;;2.50;98.30;;;;;;5102358;23;20200;-82
2021/01/09 10:09:46;;;;;;;20.80;14.20;;;2.50;98.30;;;;;;5103494;23;20228;-82
2021/01/09 10:11:51;;;;;;;21.25;12.85;;;2.50;98.30;;;;;;5104788;23;20207;-83
2021/01/09 10:14:03;;;;;;;22.42;13.90;;;2.50;98.30;;;;;;5105469;23;20207;-83
2021/01/09 10:16:06;;;;;;;18.63;12.50;;;2.50;98.30;;;;;;5105357;23;20342;-83
2021/01/09 10:18:08;;;;;;;21.58;14.10;;;2.50;98.30;;;;;;5107890;23;20203;-83
2021/01/09 10:20:19;;;;;;;21.70;13.73;;;2.60;98.30;;;;;;5104308;23;20207;-84
2021/01/09 10:22:24;;;;;;;22.88;13.90;;;2.60;98.30;;;;;;5102387;23;20207;-83
2021/01/09 10:27:36;;;;;;;20.73;13.68;;;2.70;98.30;;;;;;5018537;23;20211;-82
2021/01/09 10:29:38;;;;;;;21.77;13.20;;;2.60;98.30;;;;;;5101477;23;20202;-82
2021/01/09 10:31:40;;;;;;;23.15;13.75;;;2.60;98.30;;;;;;5101935;23;20211;-82
2021/01/09 10:33:51;;;;;;;21.52;14.27;;;2.60;98.30;;;;;;5102192;23;20204;-81
2021/01/09 10:35:57;;;;;;;23.25;13.40;;;2.60;98.30;;;;;;5099860;23;20211;-83
2021/01/09 10:53:22;;;;;;;22.65;13.90;;;2.40;98.30;;;;;;4994920;23;20716;-82
2021/01/09 10:55:53;;;;;;;20.90;14.20;;;2.40;98.30;;;;;;5017146;23;20213;-82
2021/01/09 10:58:01;;;;;;;19.90;13.43;;;2.50;98.30;;;;;;5026690;23;20205;-82
2021/01/09 11:00:27;;;;;;;21.15;13.55;;;2.50;98.30;;;;;;5028750;23;20202;-82
2021/01/09 11:02:45;;;;;;;24.20;16.17;;;2.60;98.30;;;;;;5028029;23;20578;-82
2021/01/09 11:05:30;;;;;;;23.48;14.82;;;2.50;98.30;;;;;;5038114;23;20238;-82
2021/01/09 11:07:52;;;;;;;21.77;14.57;;;2.50;98.30;;;;;;5103208;23;20452;-81
2021/01/09 11:10:32;;;;;;;24.15;14.80;;;2.50;98.30;;;;;;5055369;23;20199;-82
2021/01/09 11:12:46;;;;;;;25.30;12.68;;;2.60;98.30;;;;;;5104167;23;20207;-82
2021/01/09 11:15:00;;;;;;;25.27;14.55;;;2.50;98.30;;;;;;5103338;23;20558;-82
2021/01/09 11:17:37;;;;;;;;;;;;;;;;;;;;;